Time;durP1;ratioP1;P1;durP2;ratioP2;P2;SDS_P1;SDS_P2;PMS_P1;PMS_P2;Temp;Humidity;BMP_temperature;BMP_pressure;BME280_temperature;BME280_humidity;BME280_pressure;Samples;Min_cycle;Max_cycle;Signal;HPM_P1;HPM_P2
2021/05/11 00:01:17;;;;;;;18.13;1.85;;;;;;;11.03;100.00;100639.81;5070571;28;20466;-64
2021/05/11 00:03:43;;;;;;;13.13;1.92;;;;;;;11.01;100.00;100641.97;5070261;28;20040;-63
2021/05/11 00:06:10;;;;;;;22.00;2.72;;;;;;;10.97;100.00;100640.81;5070147;28;20041;-64
2021/05/11 00:08:35;;;;;;;11.10;1.58;;;;;;;10.92;100.00;100638.81;5070293;28;20040;-63
2021/05/11 00:11:01;;;;;;;11.75;2.08;;;;;;;10.88;100.00;100643.13;5070196;28;20098;-64
2021/05/11 00:13:27;;;;;;;13.73;1.58;;;;;;;10.83;100.00;100635.69;5070089;28;20029;-64
2021/05/11 00:15:53;;;;;;;9.25;1.75;;;;;;;10.81;100.00;100631.56;5070285;28;20110;-64
2021/05/11 00:18:19;;;;;;;6.35;1.75;;;;;;;10.77;100.00;100630.41;5070241;28;20033;-65
2021/05/11 00:20:45;;;;;;;10.35;1.13;;;;;;;10.75;100.00;100616.16;5070125;28;20398;-63
2021/05/11 00:23:10;;;;;;;22.55;2.25;;;;;;;10.76;100.00;100626.00;5069922;28;20040;-63
2021/05/11 00:25:36;;;;;;;9.20;2.10;;;;;;;10.77;100.00;100624.94;5070903;28;20074;-65
2021/05/11 00:28:02;;;;;;;11.43;2.53;;;;;;;10.76;100.00;100612.34;5073709;28;20055;-63
2021/05/11 00:30:28;;;;;;;11.65;1.23;;;;;;;10.77;100.00;100614.84;5073479;28;20059;-63
2021/05/11 00:32:54;;;;;;;14.05;1.80;;;;;;;10.79;100.00;100620.06;5073629;28;20045;-64
2021/05/11 00:35:20;;;;;;;10.73;1.35;;;;;;;10.81;100.00;100616.00;5073541;28;20048;-63
2021/05/11 00:37:45;;;;;;;12.88;1.88;;;;;;;10.85;100.00;100621.78;5073407;28;20045;-64
2021/05/11 00:40:12;;;;;;;10.68;1.90;;;;;;;10.88;100.00;100618.53;5073523;28;20039;-65
2021/05/11 00:42:38;;;;;;;19.70;2.53;;;;;;;10.89;100.00;100622.94;5073389;28;20066;-65
2021/05/11 00:45:05;;;;;;;17.15;1.83;;;;;;;10.91;100.00;100634.44;5071937;28;20518;-65
2021/05/11 00:47:32;;;;;;;20.23;2.95;;;;;;;10.93;100.00;100629.53;5073526;28;20040;-65
2021/05/11 00:49:58;;;;;;;20.95;3.20;;;;;;;10.95;100.00;100624.69;5073676;28;20051;-64
2021/05/11 00:52:24;;;;;;;17.83;2.05;;;;;;;10.97;100.00;100636.19;5073227;28;20490;-65
2021/05/11 00:54:50;;;;;;;19.92;2.75;;;;;;;10.97;100.00;100625.25;5073415;28;20029;-63
2021/05/11 00:57:16;;;;;;;15.60;2.47;;;;;;;10.98;100.00;100626.91;5072976;28;20041;-66
2021/05/11 00:59:43;;;;;;;16.63;1.73;;;;;;;11.00;100.00;100626.66;5073114;28;20079;-63
2021/05/11 01:02:09;;;;;;;15.30;2.33;;;;;;;10.99;100.00;100627.75;5073075;28;20085;-66
2021/05/11 01:04:37;;;;;;;15.60;2.83;;;;;;;10.99;100.00;100625.84;5073228;28;20036;-64
2021/05/11 01:07:05;;;;;;;14.07;1.80;;;;;;;10.99;100.00;100623.09;5072872;28;20399;-64
2021/05/11 01:09:31;;;;;;;19.75;2.75;;;;;;;11.00;100.00;100626.66;5073100;28;20033;-64
2021/05/11 01:11:58;;;;;;;16.42;2.40;;;;;;;10.99;100.00;100635.94;5072907;28;20174;-66
2021/05/11 01:14:28;;;;;;;20.05;2.55;;;;;;;10.98;100.00;100629.66;5072684;28;20066;-64
2021/05/11 01:16:58;;;;;;;16.48;2.20;;;;;;;10.98;100.00;100621.44;5072805;28;20047;-64
2021/05/11 01:19:47;;;;;;;13.95;1.80;;;;;;;10.98;100.00;100626.91;5072983;28;20444;-65
2021/05/11 01:24:46;;;;;;;16.05;2.22;;;;;;;10.96;100.00;100618.13;5072496;28;20083;-65
2021/05/11 01:51:56;;;;;;;14.63;1.75;;;;;;;10.75;100.00;100616.16;5072004;28;20087;-66
2021/05/11 02:24:07;;;;;;;20.38;2.25;;;;;;;10.43;100.00;100635.03;5071591;28;20036;-65
2021/05/11 02:26:33;;;;;;;12.63;1.83;;;;;;;10.35;100.00;100630.78;5071483;28;20059;-64
2021/05/11 02:28:59;;;;;;;11.88;1.02;;;;;;;10.26;100.00;100618.63;5071212;28;20474;-64
2021/05/11 02:31:24;;;;;;;5.60;1.35;;;;;;;10.17;100.00;100614.59;5069911;28;20047;-63
2021/05/11 02:33:50;;;;;;;17.45;1.77;;;;;;;10.08;100.00;100616.91;5071315;28;20052;-64
2021/05/11 02:36:15;;;;;;;12.07;1.70;;;;;;;10.01;100.00;100610.75;5071101;28;20410;-63
2021/05/11 02:38:41;;;;;;;11.18;1.25;;;;;;;9.94;100.00;100616.34;5071258;28;20032;-65
2021/05/11 02:41:07;;;;;;;8.25;1.50;;;;;;;9.88;100.00;100614.56;5071127;28;20048;-65
2021/05/11 02:43:37;;;;;;;7.45;1.00;;;;;;;9.85;100.00;100616.97;5070974;28;20073;-66
2021/05/11 02:46:03;;;;;;;5.13;0.60;;;;;;;9.81;100.00;100611.19;5071376;28;20097;-65
2021/05/11 02:48:28;;;;;;;5.82;0.50;;;;;;;9.80;100.00;100612.25;5071074;28;20040;-64
2021/05/11 02:50:54;;;;;;;6.40;0.80;;;;;;;9.76;100.00;100619.28;5070133;28;20135;-63
2021/05/11 02:53:20;;;;;;;5.70;0.65;;;;;;;9.76;100.00;100623.91;5071102;28;20120;-62
2021/05/11 02:55:49;;;;;;;3.17;0.43;;;;;;;9.74;100.00;100615.97;5070787;28;20044;-65
2021/05/11 02:58:15;;;;;;;9.48;1.15;;;;;;;9.74;100.00;100620.59;5070733;28;20495;-64
2021/05/11 03:00:42;;;;;;;5.32;0.70;;;;;;;9.72;100.00;100622.69;5070885;28;20107;-64
2021/05/11 03:03:07;;;;;;;10.30;1.40;;;;;;;9.71;100.00;100627.31;5070859;28;20040;-64
2021/05/11 03:05:33;;;;;;;11.55;1.13;;;;;;;9.68;100.00;100627.81;5070748;28;20097;-64
2021/05/11 03:07:59;;;;;;;5.75;0.82;;;;;;;9.65;100.00;100622.84;5070855;28;20642;-66
2021/05/11 03:10:25;;;;;;;7.30;1.27;;;;;;;9.65;100.00;100625.56;5070859;28;20101;-65
2021/05/11 03:12:51;;;;;;;11.98;1.15;;;;;;;9.68;100.00;100619.63;5070415;28;20040;-63
2021/05/11 03:15:17;;;;;;;9.88;1.55;;;;;;;9.72;100.00;100620.84;5070698;28;20040;-64
2021/05/11 03:17:42;;;;;;;7.35;1.48;;;;;;;9.79;100.00;100624.22;5070748;28;20131;-63
2021/05/11 03:20:10;;;;;;;15.18;2.03;;;;;;;9.85;100.00;100628.72;5070608;28;20504;-65
2021/05/11 03:22:36;;;;;;;7.93;1.02;;;;;;;9.87;100.00;100626.56;5070545;28;20055;-66
2021/05/11 03:25:03;;;;;;;7.22;1.13;;;;;;;9.88;100.00;100627.38;5070687;28;20040;-64
2021/05/11 03:27:29;;;;;;;6.95;1.20;;;;;;;9.89;100.00;100619.00;5070429;28;20033;-66
2021/05/11 03:29:55;;;;;;;10.30;1.02;;;;;;;9.89;100.00;100610.81;5070611;28;20044;-64
2021/05/11 03:32:21;;;;;;;9.45;1.92;;;;;;;9.90;100.00;100609.75;5070517;28;20085;-64
2021/05/11 03:34:47;;;;;;;15.30;1.90;;;;;;;9.93;100.00;100613.88;5070389;28;20040;-65
2021/05/11 03:37:12;;;;;;;19.05;1.88;;;;;;;9.94;100.00;100613.63;5070490;28;20503;-65
2021/05/11 03:39:39;;;;;;;12.52;2.13;;;;;;;9.95;100.00;100618.00;5070571;28;20059;-64
2021/05/11 03:44:45;;;;;;;14.75;2.05;;;;;;;10.01;100.00;100615.38;5070340;28;20067;-65
2021/05/11 03:47:15;;;;;;;19.73;2.03;;;;;;;10.01;100.00;100599.00;5070406;28;20119;-65
2021/05/11 03:49:40;;;;;;;18.02;1.85;;;;;;;10.03;100.00;100615.94;5070302;28;20086;-64
2021/05/11 03:52:06;;;;;;;17.27;2.30;;;;;;;10.02;100.00;100600.66;5070423;28;20041;-65
2021/05/11 03:54:32;;;;;;;16.17;1.95;;;;;;;10.02;100.00;100601.47;5070295;28;20052;-65
2021/05/11 03:56:58;;;;;;;20.00;2.00;;;;;;;10.02;100.00;100612.41;5070144;28;20044;-65
2021/05/11 03:59:24;;;;;;;13.02;2.25;;;;;;;10.04;100.00;100609.41;5070199;28;20083;-64
2021/05/11 04:01:50;;;;;;;18.83;2.15;;;;;;;10.03;100.00;100610.50;5072782;28;20037;-63
2021/05/11 04:04:15;;;;;;;12.90;2.28;;;;;;;10.05;100.00;100605.63;5072640;28;20125;-63
2021/05/11 04:06:44;;;;;;;24.13;3.35;;;;;;;10.07;100.00;100603.50;5074524;28;20039;-65
2021/05/11 04:09:18;;;;;;;13.00;1.70;;;;;;;10.09;100.00;100606.81;5074093;28;20502;-63
2021/05/11 04:16:40;;;;;;;16.38;1.55;;;;;;;10.12;100.00;100603.59;5073910;28;20431;-66
2021/05/11 04:19:06;;;;;;;14.43;2.20;;;;;;;10.12;100.00;100606.31;5073841;28;20406;-65
2021/05/11 04:21:31;;;;;;;13.25;1.20;;;;;;;10.10;100.00;100603.00;5074232;28;20119;-63
2021/05/11 04:23:57;;;;;;;8.15;0.93;;;;;;;10.08;100.00;100610.59;5073636;28;20033;-63
2021/05/11 04:26:23;;;;;;;7.20;1.25;;;;;;;10.07;100.00;100595.31;5073577;28;20429;-65
2021/05/11 04:28:50;;;;;;;12.32;1.40;;;;;;;10.08;100.00;100594.22;5073793;28;20058;-63
2021/05/11 04:31:18;;;;;;;8.88;1.38;;;;;;;10.10;100.00;100608.47;5073665;28;20051;-63
2021/05/11 04:33:44;;;;;;;8.15;1.02;;;;;;;10.11;100.00;100605.47;5073460;28;20115;-64
2021/05/11 04:36:10;;;;;;;7.80;1.40;;;;;;;10.13;100.00;100602.50;5073571;28;20090;-64
2021/05/11 04:38:37;;;;;;;12.27;1.88;;;;;;;10.17;100.00;100611.84;5073506;28;20074;-63
2021/05/11 04:41:04;;;;;;;8.30;1.40;;;;;;;10.20;100.00;100600.44;5073245;28;20062;-62
2021/05/11 04:43:31;;;;;;;11.35;2.00;;;;;;;10.24;100.00;100607.13;5073346;28;20028;-63
2021/05/11 04:48:32;;;;;;;11.20;1.98;;;;;;;10.32;100.00;100612.16;5073379;28;20036;-65
2021/05/11 04:50:58;;;;;;;13.77;2.33;;;;;;;10.35;100.00;100600.75;5073307;28;20097;-66
2021/05/11 04:53:23;;;;;;;21.48;2.05;;;;;;;10.38;100.00;100600.25;5073136;28;20437;-66
2021/05/11 04:55:50;;;;;;;16.17;1.30;;;;;;;10.40;100.00;100606.28;5073012;28;20032;-67
2021/05/11 04:58:15;;;;;;;15.07;1.88;;;;;;;10.40;100.00;100600.81;5073007;28;20079;-64
2021/05/11 05:00:41;;;;;;;11.93;1.48;;;;;;;10.35;100.00;100611.66;5073228;28;20543;-64
2021/05/11 05:03:10;;;;;;;9.70;1.17;;;;;;;10.28;100.00;100611.00;5072997;28;20766;-63
2021/05/11 05:05:36;;;;;;;8.82;1.27;;;;;;;10.18;100.00;100627.16;5072939;28;20090;-63
2021/05/11 05:08:01;;;;;;;8.88;1.15;;;;;;;10.08;100.00;100625.09;5073239;28;20028;-64
2021/05/11 05:10:27;;;;;;;14.05;1.48;;;;;;;10.03;100.00;100626.88;5072796;28;20033;-63
2021/05/11 05:12:53;;;;;;;15.75;1.58;;;;;;;9.96;100.00;100619.66;5071854;28;20036;-65
2021/05/11 05:15:18;;;;;;;16.02;1.80;;;;;;;9.95;100.00;100623.47;5072845;28;20056;-63
2021/05/11 05:17:44;;;;;;;16.02;2.08;;;;;;;9.92;100.00;100618.50;5072630;28;20498;-65
2021/05/11 05:20:11;;;;;;;13.45;1.92;;;;;;;9.89;100.00;100618.13;5072708;28;20055;-62
2021/05/11 05:22:37;;;;;;;12.00;2.13;;;;;;;9.83;100.00;100614.50;5072691;28;20071;-63
2021/05/11 05:25:19;;;;;;;6.82;0.90;;;;;;;9.82;100.00;100618.28;5072836;28;20036;-63
2021/05/11 05:28:08;;;;;;;5.10;1.08;;;;;;;9.77;100.00;100614.66;5072837;28;20450;-64
2021/05/11 05:30:30;;;;;;;10.75;1.10;;;;;;;9.71;100.00;100619.16;5072432;28;20062;-66
2021/05/11 05:33:01;;;;;;;6.53;1.02;;;;;;;9.69;100.00;100613.09;5072268;28;20399;-64
2021/05/11 05:35:29;;;;;;;10.30;0.70;;;;;;;9.66;100.00;100614.44;5072481;28;20033;-66
2021/05/11 05:37:54;;;;;;;7.55;1.33;;;;;;;9.67;100.00;100609.78;5072387;28;20043;-65
2021/05/11 05:40:21;;;;;;;6.28;0.93;;;;;;;9.69;100.00;100613.09;5072292;28;20474;-66
2021/05/11 05:42:47;;;;;;;16.20;1.10;;;;;;;9.72;100.00;100618.09;5072493;28;20033;-67
2021/05/11 05:45:14;;;;;;;6.00;1.00;;;;;;;9.75;100.00;100617.63;5072255;28;20028;-67
2021/05/11 05:47:50;;;;;;;7.72;1.20;;;;;;;9.76;100.00;100613.00;5072248;28;20078;-65
2021/05/11 05:50:27;;;;;;;5.32;1.02;;;;;;;9.79;100.00;100617.94;5072350;28;20043;-69
2021/05/11 05:53:09;;;;;;;4.55;1.10;;;;;;;9.84;100.00;100626.22;5072010;28;20035;-68
2021/05/11 05:55:35;;;;;;;6.28;1.02;;;;;;;9.88;100.00;100630.94;5071937;28;20123;-68
2021/05/11 05:58:00;;;;;;;5.53;1.25;;;;;;;9.90;100.00;100630.72;5072164;28;20136;-66
2021/05/11 06:00:26;;;;;;;4.53;0.55;;;;;;;9.90;100.00;100631.56;5072178;28;20041;-68
2021/05/11 06:02:54;;;;;;;8.35;1.15;;;;;;;9.92;100.00;100634.03;5071718;28;20384;-67
2021/05/11 06:05:21;;;;;;;5.22;0.80;;;;;;;9.95;100.00;100639.84;5071894;28;20525;-67
2021/05/11 06:07:47;;;;;;;3.22;0.70;;;;;;;9.96;100.00;100630.56;5071910;28;20142;-68
2021/05/11 06:10:12;;;;;;;4.53;0.80;;;;;;;9.96;100.00;100636.03;5071576;28;20036;-66
2021/05/11 06:12:48;;;;;;;7.57;0.80;;;;;;;9.98;100.00;100639.34;5071622;28;20036;-65
2021/05/11 06:17:39;;;;;;;12.75;1.23;;;;;;;10.06;100.00;100634.56;5071666;28;20087;-69
2021/05/11 06:20:05;;;;;;;5.65;1.13;;;;;;;10.11;100.00;100638.22;5071634;28;20086;-68
2021/05/11 06:22:31;;;;;;;4.93;0.70;;;;;;;10.14;100.00;100643.19;5071444;28;20036;-67
2021/05/11 06:24:56;;;;;;;2.20;0.60;;;;;;;10.18;100.00;100649.00;5071140;28;20069;-68
2021/05/11 06:27:22;;;;;;;4.93;0.80;;;;;;;10.19;100.00;100639.72;5071612;28;20106;-67
2021/05/11 06:29:52;;;;;;;4.90;0.80;;;;;;;10.18;100.00;100649.81;5071433;28;20089;-67
2021/05/11 06:32:17;;;;;;;5.07;0.70;;;;;;;10.17;100.00;100650.06;5071244;28;20449;-65
2021/05/11 06:34:52;;;;;;;6.70;1.17;;;;;;;10.17;100.00;100659.06;5071328;28;20036;-67
2021/05/11 06:37:18;;;;;;;6.65;1.20;;;;;;;10.18;100.00;100665.38;5071309;28;20059;-66
2021/05/11 06:39:46;;;;;;;8.23;1.42;;;;;;;10.24;100.00;100665.25;5071549;28;20491;-65
2021/05/11 06:42:12;;;;;;;3.67;1.13;;;;;;;10.30;100.00;100668.06;5071227;28;20398;-65
2021/05/11 06:55:15;;;;;;;3.83;1.48;;;;;;;10.68;100.00;100670.94;5071166;28;19927;-66
2021/05/11 06:57:40;;;;;;;8.90;2.05;;;;;;;10.76;100.00;100672.44;5070805;28;20080;-67
2021/05/11 07:00:08;;;;;;;10.27;1.95;;;;;;;10.83;100.00;100667.66;5070885;28;20064;-68
2021/05/11 07:02:34;;;;;;;16.15;2.92;;;;;;;10.89;100.00;100674.84;5070679;28;20498;-67
2021/05/11 07:04:59;;;;;;;6.93;1.60;;;;;;;10.96;100.00;100672.78;5070854;28;20131;-67
2021/05/11 07:07:26;;;;;;;11.23;1.15;;;;;;;11.03;100.00;100678.91;5070997;28;20150;-67
2021/05/11 07:15:05;;;;;;;10.30;1.77;;;;;;;11.28;100.00;100674.91;5070918;28;20036;-67
2021/05/11 07:17:31;;;;;;;11.70;1.55;;;;;;;11.38;100.00;100680.53;5070569;28;20360;-67
2021/05/11 07:19:57;;;;;;;6.90;0.98;;;;;;;11.50;100.00;100684.00;5070659;28;20080;-66
2021/05/11 07:22:23;;;;;;;8.57;1.60;;;;;;;11.59;100.00;100681.63;5070719;28;20068;-66
2021/05/11 07:24:55;;;;;;;7.85;1.00;;;;;;;11.67;100.00;100683.94;5070545;28;20036;-64
2021/05/11 07:32:21;;;;;;;8.45;1.25;;;;;;;11.84;100.00;100687.50;5070481;28;20040;-64
2021/05/11 07:34:50;;;;;;;12.38;2.70;;;;;;;11.81;100.00;100696.22;5070458;28;20070;-64
2021/05/11 07:37:16;;;;;;;12.70;2.25;;;;;;;11.83;100.00;100687.75;5072609;28;20044;-68
2021/05/11 07:39:45;;;;;;;10.93;1.70;;;;;;;11.85;100.00;100685.56;5072492;28;20044;-69
2021/05/11 07:42:12;;;;;;;9.32;1.73;;;;;;;12.00;100.00;100704.94;5074659;28;20036;-68
2021/05/11 07:44:49;;;;;;;8.32;1.10;;;;;;;12.11;100.00;100695.72;5074012;28;20544;-66
2021/05/11 07:47:23;;;;;;;9.05;1.30;;;;;;;12.23;100.00;100704.66;5073388;28;20062;-71
2021/05/11 08:16:39;;;;;;;12.13;1.75;;;;;;;12.35;100.00;100697.13;5072929;28;20129;-68
2021/05/11 08:19:12;;;;;;;9.98;1.33;;;;;;;12.25;100.00;100691.53;5073868;28;20514;-72
2021/05/11 08:29:44;;;;;;;9.52;1.80;;;;;;;11.88;100.00;100693.28;5056287;28;20039;-70
2021/05/11 08:32:10;;;;;;;8.77;1.55;;;;;;;12.05;100.00;100691.28;5053617;28;20037;-69
2021/05/11 08:34:36;;;;;;;16.85;1.75;;;;;;;12.18;100.00;100684.59;5060115;28;20036;-68
2021/05/11 08:37:02;;;;;;;10.38;1.70;;;;;;;12.31;100.00;100685.00;5063851;28;20033;-69
2021/05/11 08:39:27;;;;;;;14.43;1.77;;;;;;;12.47;100.00;100687.91;5065257;28;20033;-65
2021/05/11 08:41:53;;;;;;;7.82;1.30;;;;;;;12.58;100.00;100689.69;5065049;28;20032;-64
2021/05/11 08:44:20;;;;;;;6.68;0.85;;;;;;;12.66;100.00;100680.97;5072725;28;20043;-63
2021/05/11 08:46:46;;;;;;;7.47;1.20;;;;;;;12.71;100.00;100686.53;5073288;28;20033;-62
2021/05/11 08:49:13;;;;;;;8.38;1.38;;;;;;;12.78;100.00;100687.13;5057257;28;20123;-63
2021/05/11 09:08:01;;;;;;;12.27;2.13;;;;;;;13.40;100.00;100675.56;5053095;28;20506;-62
2021/05/11 09:27:30;;;;;;;10.32;1.58;;;;;;;13.70;100.00;100691.34;5052859;28;20029;-62
2021/05/11 10:47:01;;;;;;;22.63;2.40;;;;;;;14.82;100.00;100645.00;5071209;28;20075;-65
2021/05/11 10:49:39;;;;;;;17.08;1.80;;;;;;;14.67;100.00;100640.31;5070060;28;20043;-66
2021/05/11 10:52:11;;;;;;;12.20;2.58;;;;;;;14.42;100.00;100637.53;5069071;28;20157;-64
2021/05/11 10:54:41;;;;;;;7.90;2.10;;;;;;;14.09;100.00;100634.16;5070928;28;20028;-66
2021/05/11 11:00:42;;;;;;;13.77;2.20;;;;;;;13.66;100.00;100646.34;5062724;28;20414;-66
2021/05/11 11:03:13;;;;;;;15.70;2.40;;;;;;;13.51;100.00;100655.31;5070062;28;20094;-64
2021/05/11 11:05:45;;;;;;;8.55;1.55;;;;;;;13.36;100.00;100633.28;5069946;28;20063;-67
2021/05/11 11:08:30;;;;;;;9.63;2.10;;;;;;;13.27;100.00;100637.63;5070473;28;20083;-64
2021/05/11 11:11:17;;;;;;;19.23;3.15;;;;;;;13.43;100.00;100636.63;5068957;28;20041;-65
2021/05/11 11:13:46;;;;;;;12.48;2.53;;;;;;;13.59;100.00;100629.28;5066174;28;20039;-63
2021/05/11 11:16:12;;;;;;;13.15;2.10;;;;;;;13.62;100.00;100638.91;5070663;28;20394;-63
2021/05/11 11:18:39;;;;;;;16.75;2.35;;;;;;;13.75;100.00;100632.94;5070678;28;20037;-66
2021/05/11 11:23:55;;;;;;;12.23;2.40;;;;;;;13.81;100.00;100626.38;5062490;28;20039;-64
2021/05/11 11:26:29;;;;;;;11.95;2.20;;;;;;;13.70;100.00;100624.66;5069175;28;20052;-64
2021/05/11 11:29:12;;;;;;;14.63;1.95;;;;;;;13.59;100.00;100629.28;5066674;28;20036;-65
2021/05/11 11:31:43;;;;;;;9.25;1.23;;;;;;;13.23;100.00;100636.50;5068706;28;20032;-67
2021/05/11 11:34:33;;;;;;;4.85;1.23;;;;;;;12.81;100.00;100622.72;5060011;28;20029;-65
2021/05/11 11:37:04;;;;;;;4.88;0.90;;;;;;;12.46;100.00;100628.72;5069661;28;20056;-66
2021/05/11 11:39:35;;;;;;;19.50;2.55;;;;;;;12.16;100.00;100653.91;5064301;28;20025;-63
2021/05/11 11:42:04;;;;;;;35.85;3.33;;;;;;;11.89;100.00;100671.13;5065850;28;20032;-65
2021/05/11 11:44:35;;;;;;;23.40;4.05;;;;;;;11.59;100.00;100671.50;5070132;28;20086;-62
2021/05/11 11:47:04;;;;;;;10.15;1.38;;;;;;;11.32;100.00;100670.59;5070294;28;20488;-63
2021/05/11 11:49:33;;;;;;;9.95;1.95;;;;;;;11.18;100.00;100657.28;5064811;28;20083;-63
2021/05/11 11:52:10;;;;;;;6.75;1.27;;;;;;;11.07;100.00;100652.72;5049998;28;20067;-63
2021/05/11 12:00:05;;;;;;;14.23;1.65;;;;;;;10.81;100.00;100653.41;5057289;28;20053;-65
2021/05/11 12:02:31;;;;;;;7.97;1.35;;;;;;;10.75;100.00;100662.59;5064523;28;20470;-64
2021/05/11 12:05:14;;;;;;;8.90;0.85;;;;;;;10.56;100.00;100657.34;5065937;28;20495;-67
2021/05/11 12:08:01;;;;;;;9.95;1.15;;;;;;;10.43;100.00;100657.69;5065926;28;20033;-64
2021/05/11 12:10:28;;;;;;;7.28;1.30;;;;;;;10.35;100.00;100651.78;5076371;28;20037;-65
2021/05/11 12:12:55;;;;;;;9.10;1.08;;;;;;;10.27;100.00;100658.47;5069889;28;20486;-65
2021/05/11 12:15:21;;;;;;;11.88;1.88;;;;;;;10.13;100.00;100651.63;5069936;28;20044;-65
2021/05/11 12:18:01;;;;;;;11.35;1.85;;;;;;;10.04;100.00;100639.44;5069976;28;20422;-65
2021/05/11 12:20:27;;;;;;;7.10;1.58;;;;;;;9.97;100.00;100637.69;5069781;28;20119;-68
2021/05/11 12:23:05;;;;;;;9.98;1.45;;;;;;;9.93;100.00;100636.53;5072537;28;20044;-65
2021/05/11 12:25:31;;;;;;;10.55;1.65;;;;;;;9.93;100.00;100639.25;5073851;28;20041;-66
2021/05/11 12:27:57;;;;;;;9.48;1.48;;;;;;;9.90;100.00;100639.75;5073602;28;20025;-65
2021/05/11 12:30:41;;;;;;;18.33;2.15;;;;;;;9.88;100.00;100627.38;5073664;28;20036;-66
2021/05/11 12:33:10;;;;;;;7.22;1.85;;;;;;;9.85;100.00;100614.25;5073541;28;20123;-66
2021/05/11 12:35:36;;;;;;;10.85;2.50;;;;;;;9.83;100.00;100594.56;5073425;28;20100;-65
2021/05/11 12:38:17;;;;;;;15.18;2.80;;;;;;;9.83;100.00;100570.84;5062975;28;20041;-66
2021/05/11 12:40:52;;;;;;;10.00;2.03;;;;;;;9.88;100.00;100568.22;5053622;28;20043;-65
2021/05/11 12:43:48;;;;;;;9.50;1.40;;;;;;;9.93;100.00;100565.59;5053753;28;20110;-65
2021/05/11 12:46:23;;;;;;;7.22;1.20;;;;;;;9.99;100.00;100558.31;5053600;28;20341;-65
2021/05/11 12:49:03;;;;;;;9.85;1.40;;;;;;;10.00;100.00;100550.97;5053072;28;20036;-66
2021/05/11 12:51:39;;;;;;;10.60;1.65;;;;;;;10.00;100.00;100535.41;5051659;28;20403;-65
2021/05/11 12:54:24;;;;;;;9.40;1.33;;;;;;;9.90;100.00;100538.81;5063545;28;20509;-64
2021/05/11 12:59:54;;;;;;;4.05;1.33;;;;;;;9.76;100.00;100517.53;5053311;28;19920;-64
2021/05/11 13:26:52;;;;;;;6.75;1.52;;;;;;;9.23;100.00;100478.63;5072561;28;20032;-66
2021/05/11 13:31:54;;;;;;;11.45;1.73;;;;;;;9.17;100.00;100482.31;5072549;28;20127;-66
2021/05/11 13:34:21;;;;;;;4.90;1.00;;;;;;;9.18;100.00;100480.41;5071420;28;20037;-69
2021/05/11 13:36:47;;;;;;;5.63;1.20;;;;;;;9.20;100.00;100490.03;5070917;28;20040;-63
2021/05/11 13:39:13;;;;;;;4.90;1.20;;;;;;;9.27;100.00;100489.88;5072043;28;20028;-65
2021/05/11 13:41:42;;;;;;;10.55;1.95;;;;;;;9.31;100.00;100470.06;5070789;28;20071;-68
2021/05/11 13:44:08;;;;;;;8.95;1.65;;;;;;;9.42;100.00;100443.00;5072389;28;20037;-67
2021/05/11 13:46:34;;;;;;;4.03;1.25;;;;;;;9.60;100.00;100419.09;5068174;28;20403;-66
2021/05/11 13:49:01;;;;;;;4.55;1.13;;;;;;;9.89;100.00;100421.72;5062520;28;20054;-66
2021/05/11 13:51:27;;;;;;;3.55;0.98;;;;;;;10.42;100.00;100412.22;5072284;28;20048;-65
2021/05/11 13:53:57;;;;;;;3.47;1.13;;;;;;;10.83;100.00;100427.25;5060735;28;20032;-67
2021/05/11 14:04:34;;;;;;;2.20;0.80;;;;;;;12.55;100.00;100433.50;5051934;28;20036;-65
2021/05/11 14:07:00;;;;;;;2.95;0.88;;;;;;;13.13;100.00;100423.34;5051686;28;20506;-66
2021/05/11 14:09:26;;;;;;;6.70;1.00;;;;;;;13.54;100.00;100423.50;5052838;28;20025;-66
2021/05/11 14:11:51;;;;;;;3.30;0.90;;;;;;;13.65;100.00;100421.56;5067510;28;20482;-69
2021/05/11 14:14:17;;;;;;;3.08;0.80;;;;;;;13.88;100.00;100418.28;5068197;28;20033;-66
2021/05/11 14:16:44;;;;;;;7.95;1.20;;;;;;;13.93;100.00;100432.03;5066453;28;20098;-68
2021/05/11 14:19:11;;;;;;;8.98;1.52;;;;;;;13.98;100.00;100432.00;5064033;28;20032;-65
2021/05/11 14:21:38;;;;;;;4.93;1.10;;;;;;;14.48;100.00;100438.59;5071137;28;20059;-65
2021/05/11 14:24:04;;;;;;;5.85;1.00;;;;;;;14.86;100.00;100439.03;5071373;28;20438;-65
2021/05/11 14:26:30;;;;;;;6.32;0.98;;;;;;;15.21;100.00;100432.56;5069779;28;20556;-64
2021/05/11 14:28:56;;;;;;;4.10;0.70;;;;;;;15.65;100.00;100435.38;5071795;28;20075;-64
2021/05/11 14:31:23;;;;;;;5.13;0.80;;;;;;;16.09;100.00;100451.81;5070265;28;20032;-62
2021/05/11 14:33:49;;;;;;;2.92;0.90;;;;;;;16.21;100.00;100448.69;5071039;28;20540;-61
2021/05/11 14:36:15;;;;;;;1.95;0.70;;;;;;;16.23;100.00;100446.47;5071103;28;20040;-64
2021/05/11 14:38:41;;;;;;;4.13;1.08;;;;;;;16.49;100.00;100445.13;5071343;28;20040;-63
2021/05/11 14:41:08;;;;;;;3.03;0.70;;;;;;;16.56;100.00;100445.59;5070674;28;20043;-64
2021/05/11 14:43:35;;;;;;;2.95;1.08;;;;;;;16.65;100.00;100442.19;5070791;28;20043;-64
2021/05/11 14:46:02;;;;;;;5.35;0.90;;;;;;;16.70;100.00;100450.44;5070627;28;20044;-63
2021/05/11 14:48:30;;;;;;;3.95;0.82;;;;;;;16.71;100.00;100452.09;5070853;28;20478;-65
2021/05/11 14:50:58;;;;;;;3.50;0.70;;;;;;;16.58;100.00;100453.56;5071007;28;20115;-65
2021/05/11 14:53:24;;;;;;;2.08;0.73;;;;;;;16.57;100.00;100469.28;5070650;28;20067;-66
2021/05/11 14:55:50;;;;;;;2.58;0.57;;;;;;;16.55;100.00;100473.44;5070950;28;20036;-64
2021/05/11 14:58:15;;;;;;;2.65;1.00;;;;;;;16.57;100.00;100474.78;5069352;28;20105;-65
2021/05/11 15:00:41;;;;;;;3.42;0.90;;;;;;;16.55;100.00;100471.50;5070865;28;20041;-66
2021/05/11 15:03:10;;;;;;;3.83;0.60;;;;;;;16.51;100.00;100472.41;5070942;28;20486;-65
2021/05/11 15:05:36;;;;;;;2.42;1.13;;;;;;;16.52;100.00;100483.13;5071039;28;20095;-63
2021/05/11 15:08:02;;;;;;;5.30;1.40;;;;;;;16.41;100.00;100491.78;5071071;28;20506;-66
2021/05/11 15:10:28;;;;;;;2.03;0.70;;;;;;;16.36;100.00;100494.59;5070904;28;20490;-64
2021/05/11 15:12:54;;;;;;;2.25;0.60;;;;;;;16.46;100.00;100508.25;5070739;28;20051;-64
2021/05/11 15:15:21;;;;;;;2.78;1.35;;;;;;;16.45;100.00;100518.47;5070876;28;20048;-65
2021/05/11 15:20:15;;;;;;;1.73;0.90;;;;;;;16.65;100.00;100525.72;5070767;28;20032;-63
2021/05/11 15:22:41;;;;;;;2.50;0.70;;;;;;;16.72;100.00;100530.94;5070750;28;20098;-65
2021/05/11 15:25:08;;;;;;;13.30;1.23;;;;;;;16.69;100.00;100528.78;5070968;28;20508;-63
2021/05/11 15:27:35;;;;;;;3.60;0.90;;;;;;;16.67;100.00;100544.78;5070939;28;20048;-64
2021/05/11 15:30:04;;;;;;;5.35;1.00;;;;;;;16.59;100.00;100555.28;5070583;28;20119;-65
2021/05/11 15:32:45;;;;;;;5.00;0.88;;;;;;;16.33;100.00;100547.53;5070544;28;20536;-64
2021/05/11 15:35:15;;;;;;;6.13;1.45;;;;;;;16.24;100.00;100552.81;5070497;28;20067;-65
2021/05/11 15:37:42;;;;;;;5.20;1.02;;;;;;;16.29;100.00;100553.59;5070633;28;20138;-63
2021/05/11 15:40:13;;;;;;;4.32;0.75;;;;;;;15.93;100.00;100553.03;5070613;28;20032;-66
2021/05/11 15:42:39;;;;;;;4.45;0.70;;;;;;;15.85;100.00;100567.41;5070682;28;20111;-65
2021/05/11 15:45:07;;;;;;;1.63;0.60;;;;;;;15.95;100.00;100583.84;5070611;28;20051;-66
2021/05/11 15:47:33;;;;;;;4.18;0.80;;;;;;;15.80;100.00;100572.94;5070448;28;20064;-66
2021/05/11 15:49:59;;;;;;;2.45;0.68;;;;;;;15.83;100.00;100575.13;5070475;28;20550;-65
2021/05/11 15:52:25;;;;;;;5.97;1.08;;;;;;;15.85;100.00;100575.66;5070438;28;20093;-66
2021/05/11 15:54:51;;;;;;;2.85;0.82;;;;;;;15.85;100.00;100572.09;5070446;28;20067;-65
2021/05/11 15:57:17;;;;;;;2.40;0.85;;;;;;;15.91;100.00;100593.81;5072050;28;20032;-65
2021/05/11 15:59:43;;;;;;;4.65;1.08;;;;;;;15.96;100.00;100596.53;5074379;28;20044;-63
2021/05/11 16:02:10;;;;;;;4.80;1.00;;;;;;;15.95;100.00;100600.38;5074391;28;20090;-64
2021/05/11 16:04:36;;;;;;;2.25;0.70;;;;;;;15.82;100.00;100601.03;5074235;28;20471;-63
2021/05/11 16:07:03;;;;;;;3.22;0.68;;;;;;;15.72;100.00;100601.06;5074252;28;20494;-65
2021/05/11 16:09:29;;;;;;;5.50;0.75;;;;;;;15.58;100.00;100606.31;5072774;28;20035;-66